sensor_id;sensor_type;location;lat;lon;timestamp;pressure;altitude;pressure_sealevel;temperature;humidity
74960;BME280;63518;49.572;1.106;2023-12-20T00:02:10;100342.69;;;4.71;100.00
74960;BME280;63518;49.572;1.106;2023-12-20T00:04:37;100332.59;;;4.72;100.00
74960;BME280;63518;49.572;1.106;2023-12-20T00:07:03;100342.81;;;4.88;100.00
74960;BME280;63518;49.572;1.106;2023-12-20T00:09:30;100351.72;;;4.72;100.00
74960;BME280;63518;49.572;1.106;2023-12-20T00:11:57;100362.28;;;4.68;100.00
74960;BME280;63518;49.572;1.106;2023-12-20T00:14:24;100361.06;;;4.53;100.00
74960;BME280;63518;49.572;1.106;2023-12-20T00:16:51;100374.59;;;4.89;100.00
74960;BME280;63518;49.572;1.106;2023-12-20T00:19:17;100359.31;;;4.58;100.00
74960;BME280;63518;49.572;1.106;2023-12-20T00:21:44;100353.25;;;4.56;100.00
74960;BME280;63518;49.572;1.106;2023-12-20T00:24:11;100337.78;;;4.50;100.00
74960;BME280;63518;49.572;1.106;2023-12-20T00:26:38;100364.81;;;4.82;100.00
74960;BME280;63518;49.572;1.106;2023-12-20T00:29:04;100371.47;;;4.62;100.00
74960;BME280;63518;49.572;1.106;2023-12-20T00:31:31;100371.13;;;4.70;100.00
74960;BME280;63518;49.572;1.106;2023-12-20T00:33:58;100355.41;;;4.66;100.00
74960;BME280;63518;49.572;1.106;2023-12-20T00:36:25;100360.25;;;4.52;100.00
74960;BME280;63518;49.572;1.106;2023-12-20T00:38:51;100362.63;;;4.48;100.00
74960;BME280;63518;49.572;1.106;2023-12-20T00:41:18;100362.88;;;4.59;100.00
74960;BME280;63518;49.572;1.106;2023-12-20T00:43:45;100375.38;;;4.55;100.00
74960;BME280;63518;49.572;1.106;2023-12-20T00:46:11;100376.44;;;4.65;100.00
74960;BME280;63518;49.572;1.106;2023-12-20T00:48:38;100372.22;;;4.93;100.00
74960;BME280;63518;49.572;1.106;2023-12-20T00:51:06;100378.50;;;4.70;100.00
74960;BME280;63518;49.572;1.106;2023-12-20T00:53:32;100380.75;;;4.73;100.00
74960;BME280;63518;49.572;1.106;2023-12-20T00:55:59;100366.81;;;4.63;100.00
74960;BME280;63518;49.572;1.106;2023-12-20T00:58:26;100353.50;;;4.55;100.00
74960;BME280;63518;49.572;1.106;2023-12-20T01:00:54;100352.78;;;4.59;100.00
74960;BME280;63518;49.572;1.106;2023-12-20T01:03:21;100351.78;;;4.42;100.00
74960;BME280;63518;49.572;1.106;2023-12-20T01:05:48;100354.91;;;4.57;100.00
74960;BME280;63518;49.572;1.106;2023-12-20T01:08:14;100357.50;;;4.52;100.00
74960;BME280;63518;49.572;1.106;2023-12-20T01:10:41;100355.13;;;4.44;100.00
74960;BME280;63518;49.572;1.106;2023-12-20T01:13:08;100353.50;;;4.55;100.00
74960;BME280;63518;49.572;1.106;2023-12-20T01:15:35;100344.31;;;4.49;100.00
74960;BME280;63518;49.572;1.106;2023-12-20T01:18:02;100354.69;;;4.59;100.00
74960;BME280;63518;49.572;1.106;2023-12-20T01:20:29;100353.44;;;4.43;100.00
74960;BME280;63518;49.572;1.106;2023-12-20T01:22:55;100370.28;;;4.70;100.00
74960;BME280;63518;49.572;1.106;2023-12-20T01:25:22;100323.19;;;5.03;100.00
74960;BME280;63518;49.572;1.106;2023-12-20T01:27:49;100349.38;;;4.99;100.00
74960;BME280;63518;49.572;1.106;2023-12-20T01:30:16;100337.34;;;4.88;100.00
74960;BME280;63518;49.572;1.106;2023-12-20T01:32:43;100360.88;;;4.66;100.00
74960;BME280;63518;49.572;1.106;2023-12-20T01:35:10;100377.31;;;4.89;100.00
74960;BME280;63518;49.572;1.106;2023-12-20T01:37:39;100373.28;;;4.80;100.00
74960;BME280;63518;49.572;1.106;2023-12-20T01:40:06;100356.56;;;4.58;100.00
74960;BME280;63518;49.572;1.106;2023-12-20T01:42:33;100383.28;;;4.44;100.00
74960;BME280;63518;49.572;1.106;2023-12-20T01:45:00;100380.06;;;4.77;100.00
74960;BME280;63518;49.572;1.106;2023-12-20T01:47:26;100397.09;;;4.49;100.00
74960;BME280;63518;49.572;1.106;2023-12-20T01:49:54;100394.47;;;4.96;100.00
74960;BME280;63518;49.572;1.106;2023-12-20T01:52:24;100378.00;;;4.73;100.00
74960;BME280;63518;49.572;1.106;2023-12-20T01:54:53;100389.53;;;4.75;100.00
74960;BME280;63518;49.572;1.106;2023-12-20T01:57:21;100391.34;;;4.69;100.00
74960;BME280;63518;49.572;1.106;2023-12-20T01:59:48;100397.06;;;4.80;100.00
74960;BME280;63518;49.572;1.106;2023-12-20T02:02:14;100401.06;;;4.65;100.00
74960;BME280;63518;49.572;1.106;2023-12-20T02:04:41;100396.56;;;4.83;100.00
74960;BME280;63518;49.572;1.106;2023-12-20T02:07:08;100398.44;;;4.59;100.00
74960;BME280;63518;49.572;1.106;2023-12-20T02:09:36;100392.03;;;4.65;100.00
74960;BME280;63518;49.572;1.106;2023-12-20T02:12:05;100382.56;;;4.79;100.00
74960;BME280;63518;49.572;1.106;2023-12-20T02:14:32;100382.91;;;4.83;100.00
74960;BME280;63518;49.572;1.106;2023-12-20T02:16:58;100376.13;;;4.85;100.00
74960;BME280;63518;49.572;1.106;2023-12-20T02:19:25;100395.41;;;4.78;100.00
74960;BME280;63518;49.572;1.106;2023-12-20T02:22:05;100389.97;;;4.48;100.00
74960;BME280;63518;49.572;1.106;2023-12-20T02:24:32;100357.16;;;4.48;100.00
74960;BME280;63518;49.572;1.106;2023-12-20T02:26:59;100357.06;;;4.67;100.00
74960;BME280;63518;49.572;1.106;2023-12-20T02:29:26;100381.63;;;4.85;100.00
74960;BME280;63518;49.572;1.106;2023-12-20T02:31:53;100364.56;;;4.83;100.00
74960;BME280;63518;49.572;1.106;2023-12-20T02:34:20;100382.66;;;4.72;100.00
74960;BME280;63518;49.572;1.106;2023-12-20T02:36:46;100384.56;;;4.84;100.00
74960;BME280;63518;49.572;1.106;2023-12-20T02:39:14;100375.31;;;4.85;100.00
74960;BME280;63518;49.572;1.106;2023-12-20T02:41:40;100358.53;;;4.69;100.00
74960;BME280;63518;49.572;1.106;2023-12-20T02:44:07;100378.59;;;4.63;100.00
74960;BME280;63518;49.572;1.106;2023-12-20T02:46:34;100378.84;;;4.73;100.00
74960;BME280;63518;49.572;1.106;2023-12-20T02:49:00;100372.19;;;4.69;100.00
74960;BME280;63518;49.572;1.106;2023-12-20T02:51:27;100358.47;;;4.46;100.00
74960;BME280;63518;49.572;1.106;2023-12-20T02:53:54;100377.38;;;4.59;100.00
74960;BME280;63518;49.572;1.106;2023-12-20T02:56:20;100379.44;;;4.64;100.00
74960;BME280;63518;49.572;1.106;2023-12-20T02:58:47;100361.19;;;4.46;100.00
74960;BME280;63518;49.572;1.106;2023-12-20T03:01:14;100382.13;;;4.52;100.00
74960;BME280;63518;49.572;1.106;2023-12-20T03:03:41;100383.09;;;4.58;100.00
74960;BME280;63518;49.572;1.106;2023-12-20T03:06:08;100374.03;;;4.45;100.00
74960;BME280;63518;49.572;1.106;2023-12-20T03:08:34;100347.25;;;4.36;100.00
74960;BME280;63518;49.572;1.106;2023-12-20T03:11:01;100383.84;;;4.76;100.00
74960;BME280;63518;49.572;1.106;2023-12-20T03:13:28;100375.28;;;4.61;100.00
74960;BME280;63518;49.572;1.106;2023-12-20T03:15:55;100383.63;;;4.78;100.00
74960;BME280;63518;49.572;1.106;2023-12-20T03:18:21;100376.13;;;4.85;100.00
74960;BME280;63518;49.572;1.106;2023-12-20T03:20:48;100375.91;;;4.45;100.00
74960;BME280;63518;49.572;1.106;2023-12-20T03:23:17;100347.25;;;4.36;100.00
74960;BME280;63518;49.572;1.106;2023-12-20T03:25:43;100381.78;;;4.60;100.00
74960;BME280;63518;49.572;1.106;2023-12-20T03:28:10;100355.25;;;4.49;100.00
74960;BME280;63518;49.572;1.106;2023-12-20T03:30:37;100383.72;;;4.71;100.00
74960;BME280;63518;49.572;1.106;2023-12-20T03:33:04;100383.84;;;4.76;100.00
74960;BME280;63518;49.572;1.106;2023-12-20T03:35:31;100384.78;;;4.70;100.00
74960;BME280;63518;49.572;1.106;2023-12-20T03:37:57;100360.06;;;4.77;100.00
74960;BME280;63518;49.572;1.106;2023-12-20T03:40:26;100378.75;;;5.03;100.00
74960;BME280;63518;49.572;1.106;2023-12-20T03:42:53;100358.66;;;4.98;100.00
74960;BME280;63518;49.572;1.106;2023-12-20T03:45:20;100350.19;;;4.88;100.00
74960;BME280;63518;49.572;1.106;2023-12-20T03:47:46;100378.63;;;4.87;100.00
74960;BME280;63518;49.572;1.106;2023-12-20T03:50:15;100352.09;;;4.99;100.00
74960;BME280;63518;49.572;1.106;2023-12-20T03:52:41;100381.97;;;4.77;100.00
74960;BME280;63518;49.572;1.106;2023-12-20T03:55:08;100366.97;;;4.91;100.00
74960;BME280;63518;49.572;1.106;2023-12-20T03:57:35;100388.03;;;4.79;100.00
74960;BME280;63518;49.572;1.106;2023-12-20T04:00:02;100383.47;;;4.61;100.00
74960;BME280;63518;49.572;1.106;2023-12-20T04:02:29;100372.69;;;4.90;100.00
74960;BME280;63518;49.572;1.106;2023-12-20T04:04:56;100391.00;;;4.89;100.00
74960;BME280;63518;49.572;1.106;2023-12-20T04:07:22;100384.44;;;4.90;100.00
74960;BME280;63518;49.572;1.106;2023-12-20T04:09:49;100363.22;;;4.50;100.00
74960;BME280;63518;49.572;1.106;2023-12-20T04:12:16;100371.38;;;4.81;100.00
74960;BME280;63518;49.572;1.106;2023-12-20T04:14:42;100370.56;;;5.03;100.00
74960;BME280;63518;49.572;1.106;2023-12-20T04:17:09;100369.50;;;4.93;100.00
74960;BME280;63518;49.572;1.106;2023-12-20T04:19:36;100372.69;;;4.78;100.00
74960;BME280;63518;49.572;1.106;2023-12-20T04:22:03;100377.66;;;4.69;100.00
74960;BME280;63518;49.572;1.106;2023-12-20T04:24:30;100374.78;;;4.64;100.00
74960;BME280;63518;49.572;1.106;2023-12-20T04:26:56;100373.00;;;4.28;100.00
74960;BME280;63518;49.572;1.106;2023-12-20T04:29:23;100374.41;;;4.19;100.00
74960;BME280;63518;49.572;1.106;2023-12-20T04:31:50;100357.84;;;4.44;100.00
74960;BME280;63518;49.572;1.106;2023-12-20T04:34:20;100384.50;;;4.48;100.00
74960;BME280;63518;49.572;1.106;2023-12-20T04:36:47;100392.72;;;4.60;100.00
74960;BME280;63518;49.572;1.106;2023-12-20T04:39:14;100390.53;;;4.09;100.00
74960;BME280;63518;49.572;1.106;2023-12-20T04:41:41;100385.75;;;4.34;100.00
74960;BME280;63518;49.572;1.106;2023-12-20T04:44:08;100383.16;;;4.39;100.00
74960;BME280;63518;49.572;1.106;2023-12-20T04:46:34;100389.63;;;4.15;100.00
74960;BME280;63518;49.572;1.106;2023-12-20T04:49:02;100381.44;;;4.68;100.00
74960;BME280;63518;49.572;1.106;2023-12-20T04:51:29;100376.97;;;4.32;100.00
74960;BME280;63518;49.572;1.106;2023-12-20T04:53:55;100373.84;;;4.29;100.00
74960;BME280;63518;49.572;1.106;2023-12-20T04:56:22;100385.94;;;4.21;100.00
74960;BME280;63518;49.572;1.106;2023-12-20T04:58:49;100393.69;;;4.24;100.00
74960;BME280;63518;49.572;1.106;2023-12-20T05:01:15;100384.84;;;4.52;100.00
74960;BME280;63518;49.572;1.106;2023-12-20T05:03:42;100381.09;;;4.65;100.00
74960;BME280;63518;49.572;1.106;2023-12-20T05:06:09;100399.25;;;4.59;100.00
74960;BME280;63518;49.572;1.106;2023-12-20T05:08:36;100383.13;;;4.69;100.00
74960;BME280;63518;49.572;1.106;2023-12-20T05:11:03;100384.31;;;4.73;100.00
74960;BME280;63518;49.572;1.106;2023-12-20T05:13:30;100369.13;;;4.77;100.00
74960;BME280;63518;49.572;1.106;2023-12-20T05:16:10;100397.06;;;4.80;100.00
74960;BME280;63518;49.572;1.106;2023-12-20T05:18:37;100400.63;;;4.92;100.00
74960;BME280;63518;49.572;1.106;2023-12-20T05:21:04;100390.72;;;4.67;100.00
74960;BME280;63518;49.572;1.106;2023-12-20T05:23:31;100399.56;;;4.81;100.00
74960;BME280;63518;49.572;1.106;2023-12-20T05:25:57;100404.47;;;5.02;100.00
74960;BME280;63518;49.572;1.106;2023-12-20T05:28:25;100403.63;;;5.14;100.00
74960;BME280;63518;49.572;1.106;2023-12-20T05:30:52;100402.66;;;4.96;100.00
74960;BME280;63518;49.572;1.106;2023-12-20T05:33:19;100406.13;;;5.15;100.00
74960;BME280;63518;49.572;1.106;2023-12-20T05:35:46;100406.03;;;5.10;100.00
74960;BME280;63518;49.572;1.106;2023-12-20T05:38:13;100400.75;;;4.97;100.00
74960;BME280;63518;49.572;1.106;2023-12-20T05:40:40;100400.53;;;4.98;100.00
74960;BME280;63518;49.572;1.106;2023-12-20T05:43:06;100381.72;;;4.78;100.00
74960;BME280;63518;49.572;1.106;2023-12-20T05:45:33;100385.53;;;4.89;100.00
74960;BME280;63518;49.572;1.106;2023-12-20T05:48:00;100404.81;;;5.06;100.00
74960;BME280;63518;49.572;1.106;2023-12-20T05:50:27;100395.06;;;5.10;100.00
74960;BME280;63518;49.572;1.106;2023-12-20T05:52:54;100407.69;;;5.11;100.00
74960;BME280;63518;49.572;1.106;2023-12-20T05:55:21;100397.88;;;4.92;100.00
74960;BME280;63518;49.572;1.106;2023-12-20T05:57:48;100403.75;;;4.95;100.00
74960;BME280;63518;49.572;1.106;2023-12-20T06:00:16;100405.50;;;4.78;100.00
74960;BME280;63518;49.572;1.106;2023-12-20T06:02:43;100384.91;;;4.75;100.00
74960;BME280;63518;49.572;1.106;2023-12-20T06:05:09;100397.31;;;5.01;100.00
74960;BME280;63518;49.572;1.106;2023-12-20T06:07:36;100392.56;;;4.97;100.00
74960;BME280;63518;49.572;1.106;2023-12-20T06:10:03;100413.75;;;5.13;100.00
74960;BME280;63518;49.572;1.106;2023-12-20T06:12:30;100415.78;;;5.18;100.00
74960;BME280;63518;49.572;1.106;2023-12-20T06:14:59;100420.16;;;5.30;100.00
74960;BME280;63518;49.572;1.106;2023-12-20T06:17:26;100389.72;;;5.03;100.00
74960;BME280;63518;49.572;1.106;2023-12-20T06:19:54;100410.75;;;5.38;100.00
74960;BME280;63518;49.572;1.106;2023-12-20T06:22:21;100408.28;;;5.37;100.00
74960;BME280;63518;49.572;1.106;2023-12-20T06:24:47;100408.38;;;5.53;100.00
74960;BME280;63518;49.572;1.106;2023-12-20T06:27:14;100431.97;;;5.43;100.00
74960;BME280;63518;49.572;1.106;2023-12-20T06:29:41;100428.50;;;5.36;100.00
74960;BME280;63518;49.572;1.106;2023-12-20T06:32:09;100418.63;;;5.46;100.00
74960;BME280;63518;49.572;1.106;2023-12-20T06:34:36;100424.84;;;5.42;100.00
74960;BME280;63518;49.572;1.106;2023-12-20T06:37:03;100435.78;;;5.42;100.00
74960;BME280;63518;49.572;1.106;2023-12-20T06:39:30;100418.88;;;5.56;100.00
74960;BME280;63518;49.572;1.106;2023-12-20T06:41:57;100401.13;;;5.36;100.00
74960;BME280;63518;49.572;1.106;2023-12-20T06:44:24;100426.94;;;5.40;100.00
74960;BME280;63518;49.572;1.106;2023-12-20T06:46:50;100441.25;;;5.42;100.00
74960;BME280;63518;49.572;1.106;2023-12-20T06:49:17;100422.31;;;5.28;100.00
74960;BME280;63518;49.572;1.106;2023-12-20T06:51:45;100429.59;;;5.34;100.00
74960;BME280;63518;49.572;1.106;2023-12-20T06:54:12;100411.59;;;5.15;100.00
74960;BME280;63518;49.572;1.106;2023-12-20T06:56:38;100402.19;;;4.99;100.00
74960;BME280;63518;49.572;1.106;2023-12-20T06:59:05;100436.22;;;5.15;100.00
74960;BME280;63518;49.572;1.106;2023-12-20T07:01:33;100415.16;;;5.04;100.00
74960;BME280;63518;49.572;1.106;2023-12-20T07:03:59;100431.81;;;5.02;100.00
74960;BME280;63518;49.572;1.106;2023-12-20T07:06:26;100420.75;;;4.97;100.00
74960;BME280;63518;49.572;1.106;2023-12-20T07:08:53;100414.22;;;5.10;100.00
74960;BME280;63518;49.572;1.106;2023-12-20T07:11:20;100424.06;;;4.99;100.00
74960;BME280;63518;49.572;1.106;2023-12-20T07:13:46;100395.03;;;4.87;100.00
74960;BME280;63518;49.572;1.106;2023-12-20T07:16:13;100425.91;;;5.41;100.00
74960;BME280;63518;49.572;1.106;2023-12-20T07:18:40;100421.84;;;5.31;100.00
74960;BME280;63518;49.572;1.106;2023-12-20T07:21:07;100401.84;;;5.19;100.00
74960;BME280;63518;49.572;1.106;2023-12-20T07:23:34;100425.06;;;5.28;100.00
74960;BME280;63518;49.572;1.106;2023-12-20T07:26:01;100425.91;;;5.41;100.00
74960;BME280;63518;49.572;1.106;2023-12-20T07:28:28;100390.78;;;5.26;100.00
74960;BME280;63518;49.572;1.106;2023-12-20T07:30:54;100418.97;;;5.38;100.00
74960;BME280;63518;49.572;1.106;2023-12-20T07:33:21;100424.19;;;5.63;100.00
74960;BME280;63518;49.572;1.106;2023-12-20T07:35:48;100436.13;;;5.57;100.00
74960;BME280;63518;49.572;1.106;2023-12-20T07:38:15;100427.69;;;5.35;100.00
74960;BME280;63518;49.572;1.106;2023-12-20T07:40:42;100412.66;;;5.73;100.00
74960;BME280;63518;49.572;1.106;2023-12-20T07:43:09;100415.75;;;5.65;100.00
74960;BME280;63518;49.572;1.106;2023-12-20T07:45:35;100385.50;;;5.48;100.00
74960;BME280;63518;49.572;1.106;2023-12-20T07:48:02;100411.34;;;5.75;100.00
74960;BME280;63518;49.572;1.106;2023-12-20T07:50:29;100418.59;;;5.70;100.00
74960;BME280;63518;49.572;1.106;2023-12-20T07:52:56;100421.47;;;5.75;100.00
74960;BME280;63518;49.572;1.106;2023-12-20T07:55:23;100422.53;;;5.62;100.00
74960;BME280;63518;49.572;1.106;2023-12-20T07:57:49;100429.06;;;5.84;100.00
74960;BME280;63518;49.572;1.106;2023-12-20T08:00:17;100429.91;;;5.85;100.00
74960;BME280;63518;49.572;1.106;2023-12-20T08:02:44;100442.41;;;5.81;100.00
74960;BME280;63518;49.572;1.106;2023-12-20T08:05:11;100445.41;;;5.91;100.00
74960;BME280;63518;49.572;1.106;2023-12-20T08:07:38;100443.00;;;5.95;100.00
74960;BME280;63518;49.572;1.106;2023-12-20T08:10:05;100427.88;;;5.69;100.00
74960;BME280;63518;49.572;1.106;2023-12-20T08:12:32;100439.44;;;5.71;100.00
74960;BME280;63518;49.572;1.106;2023-12-20T08:15:00;100436.69;;;5.71;100.00
74960;BME280;63518;49.572;1.106;2023-12-20T08:17:27;100455.78;;;5.66;100.00
74960;BME280;63518;49.572;1.106;2023-12-20T08:19:54;100448.97;;;5.80;100.00
74960;BME280;63518;49.572;1.106;2023-12-20T08:22:21;100424.09;;;5.58;100.00
74960;BME280;63518;49.572;1.106;2023-12-20T08:24:48;100447.81;;;5.41;100.00
74960;BME280;63518;49.572;1.106;2023-12-20T08:27:15;100468.50;;;5.60;100.00
74960;BME280;63518;49.572;1.106;2023-12-20T08:29:43;100468.84;;;5.75;100.00
74960;BME280;63518;49.572;1.106;2023-12-20T08:32:11;100470.75;;;5.63;100.00
74960;BME280;63518;49.572;1.106;2023-12-20T08:34:38;100461.38;;;5.59;100.00
74960;BME280;63518;49.572;1.106;2023-12-20T08:37:05;100438.97;;;5.39;100.00
74960;BME280;63518;49.572;1.106;2023-12-20T08:39:31;100466.38;;;5.74;100.00
74960;BME280;63518;49.572;1.106;2023-12-20T08:42:00;100446.38;;;5.50;100.00
74960;BME280;63518;49.572;1.106;2023-12-20T08:44:26;100432.66;;;5.73;100.00
74960;BME280;63518;49.572;1.106;2023-12-20T08:46:53;100439.91;;;5.91;100.00
74960;BME280;63518;49.572;1.106;2023-12-20T08:49:23;100443.38;;;5.75;100.00
74960;BME280;63518;49.572;1.106;2023-12-20T08:51:50;100451.47;;;5.70;100.00
74960;BME280;63518;49.572;1.106;2023-12-20T08:54:17;100454.13;;;5.88;100.00
74960;BME280;63518;49.572;1.106;2023-12-20T08:56:45;100450.97;;;5.84;100.00
74960;BME280;63518;49.572;1.106;2023-12-20T08:59:12;100451.47;;;5.81;100.00
74960;BME280;63518;49.572;1.106;2023-12-20T09:01:39;100463.25;;;5.82;100.00
74960;BME280;63518;49.572;1.106;2023-12-20T09:04:06;100464.78;;;5.78;100.00
74960;BME280;63518;49.572;1.106;2023-12-20T09:06:33;100432.66;;;5.61;100.00
74960;BME280;63518;49.572;1.106;2023-12-20T09:09:00;100419.22;;;5.60;100.00
74960;BME280;63518;49.572;1.106;2023-12-20T09:11:27;100452.66;;;5.85;100.00
74960;BME280;63518;49.572;1.106;2023-12-20T09:13:54;100456.94;;;5.81;100.00
74960;BME280;63518;49.572;1.106;2023-12-20T09:16:20;100444.66;;;6.07;100.00
74960;BME280;63518;49.572;1.106;2023-12-20T09:18:47;100439.22;;;5.96;100.00
74960;BME280;63518;49.572;1.106;2023-12-20T09:21:14;100440.81;;;6.08;100.00
74960;BME280;63518;49.572;1.106;2023-12-20T09:23:41;100446.06;;;6.10;100.00
74960;BME280;63518;49.572;1.106;2023-12-20T09:26:07;100435.75;;;5.77;100.00
74960;BME280;63518;49.572;1.106;2023-12-20T09:28:34;100452.53;;;5.92;100.00
74960;BME280;63518;49.572;1.106;2023-12-20T09:31:04;100413.53;;;6.13;100.00
74960;BME280;63518;49.572;1.106;2023-12-20T09:33:32;100431.59;;;6.26;100.00
74960;BME280;63518;49.572;1.106;2023-12-20T09:35:59;100429.22;;;6.18;100.00
74960;BME280;63518;49.572;1.106;2023-12-20T09:38:26;100406.53;;;6.06;100.00
74960;BME280;63518;49.572;1.106;2023-12-20T09:40:53;100410.25;;;6.28;100.00
74960;BME280;63518;49.572;1.106;2023-12-20T09:43:23;100405.75;;;6.22;100.00
74960;BME280;63518;49.572;1.106;2023-12-20T09:45:53;100413.69;;;6.35;100.00
74960;BME280;63518;49.572;1.106;2023-12-20T09:48:20;100411.09;;;6.29;100.00
74960;BME280;63518;49.572;1.106;2023-12-20T09:50:47;100419.94;;;6.76;100.00
74960;BME280;63518;49.572;1.106;2023-12-20T09:53:19;100416.34;;;6.76;100.00
74960;BME280;63518;49.572;1.106;2023-12-20T09:55:49;100439.97;;;6.77;100.00
74960;BME280;63518;49.572;1.106;2023-12-20T09:58:16;100423.06;;;6.68;100.00
74960;BME280;63518;49.572;1.106;2023-12-20T10:00:43;100443.78;;;6.47;100.00
74960;BME280;63518;49.572;1.106;2023-12-20T10:03:10;100436.50;;;6.53;100.00
74960;BME280;63518;49.572;1.106;2023-12-20T10:05:40;100465.44;;;6.32;100.00
74960;BME280;63518;49.572;1.106;2023-12-20T10:08:09;100466.00;;;6.45;100.00
74960;BME280;63518;49.572;1.106;2023-12-20T10:10:36;100460.59;;;6.22;100.00
74960;BME280;63518;49.572;1.106;2023-12-20T10:13:13;100456.53;;;6.53;100.00
74960;BME280;63518;49.572;1.106;2023-12-20T10:15:40;100461.38;;;6.34;100.00
74960;BME280;63518;49.572;1.106;2023-12-20T10:18:08;100457.41;;;6.42;100.00
74960;BME280;63518;49.572;1.106;2023-12-20T10:20:35;100432.31;;;6.50;100.00
74960;BME280;63518;49.572;1.106;2023-12-20T10:23:03;100433.31;;;6.44;100.00
74960;BME280;63518;49.572;1.106;2023-12-20T10:25:30;100440.63;;;6.67;100.00
74960;BME280;63518;49.572;1.106;2023-12-20T10:28:10;100453.16;;;6.63;100.00
74960;BME280;63518;49.572;1.106;2023-12-20T10:30:38;100462.38;;;6.73;100.00
74960;BME280;63518;49.572;1.106;2023-12-20T10:33:07;100445.75;;;6.63;100.00
74960;BME280;63518;49.572;1.106;2023-12-20T10:35:38;100432.50;;;6.43;100.00
74960;BME280;63518;49.572;1.106;2023-12-20T10:38:11;100430.44;;;6.51;100.00
74960;BME280;63518;49.572;1.106;2023-12-20T10:40:40;100424.88;;;6.34;100.00
74960;BME280;63518;49.572;1.106;2023-12-20T10:43:08;100417.72;;;6.33;100.00
74960;BME280;63518;49.572;1.106;2023-12-20T10:45:35;100431.75;;;6.48;100.00
74960;BME280;63518;49.572;1.106;2023-12-20T10:48:03;100423.34;;;6.26;100.00
74960;BME280;63518;49.572;1.106;2023-12-20T10:50:31;100415.66;;;6.68;100.00
74960;BME280;63518;49.572;1.106;2023-12-20T10:52:58;100413.03;;;6.45;100.00
74960;BME280;63518;49.572;1.106;2023-12-20T10:55:26;100415.66;;;6.68;100.00
74960;BME280;63518;49.572;1.106;2023-12-20T10:58:09;100387.41;;;7.01;100.00
74960;BME280;63518;49.572;1.106;2023-12-20T11:00:40;100407.78;;;7.06;100.00
74960;BME280;63518;49.572;1.106;2023-12-20T11:03:11;100394.50;;;7.14;100.00
74960;BME280;63518;49.572;1.106;2023-12-20T11:05:59;100388.50;;;7.00;100.00
74960;BME280;63518;49.572;1.106;2023-12-20T11:08:36;100391.09;;;6.90;100.00
74960;BME280;63518;49.572;1.106;2023-12-20T11:13:43;100389.75;;;6.93;100.00
74960;BME280;63518;49.572;1.106;2023-12-20T11:16:14;100390.25;;;7.07;100.00
74960;BME280;63518;49.572;1.106;2023-12-20T11:18:41;100383.72;;;7.13;100.00
74960;BME280;63518;49.572;1.106;2023-12-20T11:21:10;100396.81;;;7.22;100.00
74960;BME280;63518;49.572;1.106;2023-12-20T11:23:37;100394.81;;;7.01;100.00
74960;BME280;63518;49.572;1.106;2023-12-20T11:26:04;100390.28;;;7.28;100.00
74960;BME280;63518;49.572;1.106;2023-12-20T11:28:31;100398.06;;;7.15;100.00
74960;BME280;63518;49.572;1.106;2023-12-20T11:30:58;100402.03;;;7.24;100.00
74960;BME280;63518;49.572;1.106;2023-12-20T11:33:30;100380.66;;;7.09;100.00
74960;BME280;63518;49.572;1.106;2023-12-20T11:35:59;100380.25;;;7.56;100.00
74960;BME280;63518;49.572;1.106;2023-12-20T11:38:36;100361.47;;;6.92;100.00
74960;BME280;63518;49.572;1.106;2023-12-20T11:41:07;100349.06;;;6.56;100.00
74960;BME280;63518;49.572;1.106;2023-12-20T11:43:38;100358.97;;;6.91;100.00
74960;BME280;63518;49.572;1.106;2023-12-20T11:46:06;100332.44;;;6.46;100.00
74960;BME280;63518;49.572;1.106;2023-12-20T11:48:36;100357.38;;;6.78;100.00
74960;BME280;63518;49.572;1.106;2023-12-20T11:51:13;100372.50;;;6.97;100.00
74960;BME280;63518;49.572;1.106;2023-12-20T11:53:40;100358.13;;;6.73;100.00
74960;BME280;63518;49.572;1.106;2023-12-20T11:56:09;100368.63;;;6.77;100.00
74960;BME280;63518;49.572;1.106;2023-12-20T11:58:36;100365.13;;;6.98;100.00
74960;BME280;63518;49.572;1.106;2023-12-20T12:01:04;100356.69;;;7.05;100.00
74960;BME280;63518;49.572;1.106;2023-12-20T12:03:35;100337.47;;;7.21;100.00
74960;BME280;63518;49.572;1.106;2023-12-20T12:06:03;100333.31;;;7.19;100.00
74960;BME280;63518;49.572;1.106;2023-12-20T12:08:31;100323.81;;;7.26;100.00
74960;BME280;63518;49.572;1.106;2023-12-20T12:10:58;100336.41;;;7.44;100.00
74960;BME280;63518;49.572;1.106;2023-12-20T12:13:25;100333.00;;;7.15;100.00
74960;BME280;63518;49.572;1.106;2023-12-20T12:15:54;100347.63;;;7.21;100.00
74960;BME280;63518;49.572;1.106;2023-12-20T12:18:21;100333.28;;;7.36;100.00
74960;BME280;63518;49.572;1.106;2023-12-20T12:20:48;100338.09;;;7.28;100.00
74960;BME280;63518;49.572;1.106;2023-12-20T12:23:22;100314.94;;;8.07;100.00
74960;BME280;63518;49.572;1.106;2023-12-20T12:25:50;100305.13;;;7.89;100.00
74960;BME280;63518;49.572;1.106;2023-12-20T12:28:17;100303.13;;;7.84;100.00
74960;BME280;63518;49.572;1.106;2023-12-20T12:30:56;100301.28;;;7.90;100.00
74960;BME280;63518;49.572;1.106;2023-12-20T12:33:27;100296.50;;;7.80;100.00
74960;BME280;63518;49.572;1.106;2023-12-20T12:35:54;100287.41;;;8.02;100.00
74960;BME280;63518;49.572;1.106;2023-12-20T12:38:22;100289.38;;;8.06;100.00
74960;BME280;63518;49.572;1.106;2023-12-20T12:40:50;100283.44;;;8.20;100.00
74960;BME280;63518;49.572;1.106;2023-12-20T12:43:17;100304.31;;;7.89;100.00
74960;BME280;63518;49.572;1.106;2023-12-20T12:45:44;100296.31;;;7.87;100.00
74960;BME280;63518;49.572;1.106;2023-12-20T12:48:10;100285.84;;;8.11;100.00
74960;BME280;63518;49.572;1.106;2023-12-20T12:50:37;100282.78;;;8.07;100.00
74960;BME280;63518;49.572;1.106;2023-12-20T12:53:04;100278.94;;;8.08;100.00
74960;BME280;63518;49.572;1.106;2023-12-20T12:55:31;100266.47;;;8.28;100.00